createdAt,value
2017-07-21T00:01:34.602Z,1.60
2017-07-21T00:04:02.046Z,1.80
2017-07-21T00:06:29.574Z,1.90
2017-07-21T00:08:57.031Z,2.80
2017-07-21T00:11:24.462Z,1.70
2017-07-21T00:13:51.963Z,1.87
2017-07-21T00:16:21.073Z,1.60
2017-07-21T00:18:49.327Z,2.27
2017-07-21T00:21:17.554Z,2.00
2017-07-21T00:23:44.998Z,2.80
2017-07-21T00:26:13.227Z,1.57
2017-07-21T00:28:41.250Z,1.87
2017-07-21T00:31:08.686Z,2.10
2017-07-21T00:33:37.263Z,1.90
2017-07-21T00:36:04.698Z,2.07
2017-07-21T00:38:33.670Z,1.77
2017-07-21T00:41:01.723Z,2.20
2017-07-21T00:43:29.223Z,1.70
2017-07-21T00:45:57.814Z,1.90
2017-07-21T00:48:26.162Z,2.20
2017-07-21T00:50:53.637Z,2.33
2017-07-21T00:53:21.107Z,1.70
2017-07-21T00:55:48.546Z,2.40
2017-07-21T00:58:15.987Z,1.93
2017-07-21T01:00:43.430Z,2.10
2017-07-21T01:03:11.844Z,2.20
2017-07-21T01:05:40.035Z,2.03
2017-07-21T01:08:07.575Z,2.50
2017-07-21T01:10:35.048Z,2.43
2017-07-21T01:15:36.306Z,1.63
2017-07-21T01:18:05.909Z,2.30
2017-07-21T01:20:33.342Z,2.80
2017-07-21T01:23:00.779Z,1.90
2017-07-21T01:25:30.262Z,2.40
2017-07-21T01:27:58.490Z,3.60
2017-07-21T01:30:26.051Z,2.10
2017-07-21T01:32:53.488Z,2.50
2017-07-21T01:35:20.944Z,2.80
2017-07-21T01:37:48.375Z,2.30
2017-07-21T01:40:16.448Z,2.20
2017-07-21T01:42:44.033Z,2.10
2017-07-21T01:45:11.518Z,2.10
2017-07-21T01:47:38.964Z,2.60
2017-07-21T01:50:06.407Z,2.43
2017-07-21T01:52:33.854Z,2.50
2017-07-21T01:55:01.299Z,2.83
2017-07-21T01:57:28.725Z,2.70
2017-07-21T01:59:56.931Z,2.60
2017-07-21T02:02:24.378Z,2.57
2017-07-21T02:04:51.807Z,3.00
2017-07-21T02:07:19.246Z,2.57
2017-07-21T02:09:46.693Z,2.70
2017-07-21T02:15:05.290Z,2.83
2017-07-21T02:17:33.465Z,2.80
2017-07-21T02:20:01.641Z,3.30
2017-07-21T02:22:29.054Z,2.50
2017-07-21T02:24:56.465Z,2.80
2017-07-21T02:27:23.873Z,4.60
2017-07-21T02:29:51.284Z,3.80
2017-07-21T02:32:18.697Z,2.90
2017-07-21T02:34:46.116Z,3.00
2017-07-21T02:37:13.529Z,3.57
2017-07-21T02:39:41.697Z,3.60
2017-07-21T02:42:09.873Z,3.10
2017-07-21T02:44:37.279Z,3.50
2017-07-21T02:47:04.681Z,3.30
2017-07-21T02:49:33.402Z,3.33
2017-07-21T02:52:00.809Z,3.30
2017-07-21T02:54:28.213Z,3.17
2017-07-21T02:56:56.137Z,4.20
2017-07-21T02:59:23.556Z,3.80
2017-07-21T03:01:50.965Z,3.87
2017-07-21T03:04:19.177Z,3.43
2017-07-21T03:06:46.578Z,4.10
2017-07-21T03:09:14.308Z,3.87
2017-07-21T03:11:42.573Z,3.93
2017-07-21T03:14:11.779Z,4.17
2017-07-21T03:16:39.181Z,4.40
2017-07-21T03:19:07.357Z,4.03
2017-07-21T03:21:35.533Z,4.40
2017-07-21T03:24:04.569Z,4.60
2017-07-21T03:26:31.969Z,4.20
2017-07-21T03:28:59.394Z,4.30
2017-07-21T03:31:26.801Z,3.70
2017-07-21T03:33:54.220Z,4.43
2017-07-21T03:36:21.640Z,4.40
2017-07-21T03:38:49.097Z,5.13
2017-07-21T03:41:16.502Z,4.30
2017-07-21T03:43:43.904Z,3.97
2017-07-21T03:46:11.373Z,3.90
2017-07-21T03:48:38.828Z,4.37
2017-07-21T03:51:06.246Z,4.93
2017-07-21T03:53:34.338Z,4.83
2017-07-21T03:56:01.745Z,4.57
2017-07-21T03:58:29.162Z,4.37
2017-07-21T04:00:56.573Z,4.00
2017-07-21T04:03:23.981Z,4.33
2017-07-21T04:05:51.405Z,4.07
2017-07-21T04:08:18.810Z,4.27
2017-07-21T04:10:46.232Z,3.87
2017-07-21T04:13:13.633Z,4.73
2017-07-21T04:15:41.073Z,5.70
2017-07-21T04:18:08.469Z,4.80
2017-07-21T04:20:36.191Z,4.87
2017-07-21T04:23:03.595Z,4.93
2017-07-21T04:25:30.995Z,4.70
2017-07-21T04:27:59.075Z,4.60
2017-07-21T04:30:26.469Z,5.30
2017-07-21T04:32:53.885Z,5.43
2017-07-21T04:35:21.633Z,5.40
2017-07-21T04:37:49.090Z,5.40
2017-07-21T04:40:16.503Z,5.60
2017-07-21T04:42:45.473Z,5.47
2017-07-21T04:45:12.901Z,5.07
2017-07-21T04:47:40.312Z,5.13
2017-07-21T04:50:08.540Z,4.20
2017-07-21T04:52:35.941Z,4.30
2017-07-21T04:55:04.116Z,4.37
2017-07-21T04:57:32.285Z,4.10
2017-07-21T04:59:59.693Z,4.57
2017-07-21T05:02:27.105Z,3.50
2017-07-21T05:04:54.509Z,4.00
2017-07-21T05:07:21.926Z,2.90
2017-07-21T05:09:50.101Z,3.53
2017-07-21T05:12:18.277Z,3.67
2017-07-21T05:14:45.684Z,4.20
2017-07-21T05:17:13.101Z,2.70
2017-07-21T05:19:40.513Z,2.77
2017-07-21T05:22:08.786Z,2.37
2017-07-21T05:24:36.196Z,2.57
2017-07-21T05:27:03.681Z,2.80
2017-07-21T05:29:31.087Z,2.57
2017-07-21T05:31:59.273Z,2.20
2017-07-21T05:34:26.677Z,2.40
2017-07-21T05:36:54.094Z,2.00
2017-07-21T05:39:21.505Z,2.07
2017-07-21T05:41:48.913Z,3.07
2017-07-21T05:44:17.255Z,2.00
2017-07-21T05:46:44.657Z,1.93
2017-07-21T05:49:12.083Z,1.83
2017-07-21T05:51:39.517Z,1.70
2017-07-21T05:54:06.917Z,1.57
2017-07-21T05:56:34.329Z,1.80
2017-07-21T05:59:02.517Z,2.10
2017-07-21T06:01:29.925Z,1.80
2017-07-21T06:03:57.349Z,2.00
2017-07-21T06:06:24.753Z,1.40
2017-07-21T06:08:52.170Z,1.60
2017-07-21T06:11:19.585Z,1.67
2017-07-21T06:13:47.789Z,2.10
2017-07-21T06:16:15.193Z,1.83
2017-07-21T06:18:42.597Z,1.70
2017-07-21T06:21:10.014Z,1.83
2017-07-21T06:23:37.429Z,1.80
2017-07-21T06:26:04.838Z,1.67
2017-07-21T06:28:33.017Z,1.60
2017-07-21T06:31:01.198Z,1.77
2017-07-21T06:33:29.364Z,1.30
2017-07-21T06:35:57.540Z,1.43
2017-07-21T06:38:25.721Z,1.30
2017-07-21T06:40:53.133Z,2.20
2017-07-21T06:43:20.546Z,2.00
2017-07-21T06:45:47.957Z,1.67
2017-07-21T06:48:15.733Z,1.63
2017-07-21T06:50:43.134Z,1.50
2017-07-21T06:53:10.538Z,1.77
2017-07-21T06:55:37.957Z,1.50
2017-07-21T06:58:05.375Z,1.70
2017-07-21T07:00:32.783Z,1.33
2017-07-21T07:03:00.761Z,1.43
2017-07-21T07:05:28.174Z,1.70
2017-07-21T07:07:55.592Z,1.40
2017-07-21T07:10:22.997Z,1.30
2017-07-21T07:12:50.417Z,1.00
2017-07-21T07:15:18.589Z,1.53
2017-07-21T07:17:46.765Z,1.43
2017-07-21T07:20:16.321Z,1.43
2017-07-21T07:22:43.738Z,1.20
2017-07-21T07:25:11.147Z,1.20
2017-07-21T07:27:39.476Z,1.20
2017-07-21T07:30:07.406Z,1.40
2017-07-21T07:32:34.813Z,1.43
2017-07-21T07:35:02.217Z,1.00
2017-07-21T07:37:29.635Z,1.80
2017-07-21T07:39:58.025Z,1.10
2017-07-21T07:42:25.442Z,1.23
2017-07-21T07:44:52.850Z,1.13
2017-07-21T07:47:20.965Z,1.20
2017-07-21T07:49:48.385Z,1.00
2017-07-21T07:52:15.797Z,1.43
2017-07-21T07:54:43.724Z,1.20
2017-07-21T07:57:11.125Z,1.27
2017-07-21T07:59:40.077Z,0.97
2017-07-21T08:02:08.246Z,0.93
2017-07-21T08:04:36.432Z,1.00
2017-07-21T08:07:04.617Z,1.53
2017-07-21T08:09:32.794Z,1.10
2017-07-21T08:12:00.207Z,0.80
2017-07-21T08:14:27.649Z,0.70
2017-07-21T08:16:56.098Z,0.83
2017-07-21T08:19:23.501Z,1.20
2017-07-21T08:21:51.274Z,1.43
2017-07-21T08:24:18.685Z,1.33
2017-07-21T08:26:46.097Z,0.93
2017-07-21T08:29:14.279Z,1.00
2017-07-21T08:31:42.918Z,0.70
2017-07-21T08:34:10.333Z,1.00
2017-07-21T08:36:38.236Z,0.73
2017-07-21T08:39:06.321Z,1.00
2017-07-21T08:41:33.738Z,0.93
2017-07-21T08:44:01.142Z,0.90
2017-07-21T08:46:28.573Z,1.20
2017-07-21T08:48:55.985Z,1.00
2017-07-21T08:51:24.173Z,0.80
2017-07-21T08:53:52.097Z,0.83
2017-07-21T08:56:19.509Z,1.10
2017-07-21T08:58:46.926Z,0.80
2017-07-21T09:01:14.321Z,1.23
2017-07-21T09:03:41.737Z,1.13
2017-07-21T09:06:09.143Z,1.00
2017-07-21T09:08:36.558Z,0.73
2017-07-21T09:11:04.729Z,0.83
2017-07-21T09:13:32.924Z,0.83
2017-07-21T09:16:00.332Z,1.40
2017-07-21T09:18:28.282Z,0.93
2017-07-21T09:20:55.702Z,0.90
2017-07-21T09:23:23.133Z,0.90
2017-07-21T09:25:51.309Z,1.23
2017-07-21T09:28:19.481Z,0.90
2017-07-21T09:30:47.667Z,1.10
2017-07-21T09:33:16.373Z,0.90
2017-07-21T09:35:43.789Z,1.07
2017-07-21T09:38:11.198Z,1.00
2017-07-21T09:40:38.610Z,0.80
2017-07-21T09:43:06.785Z,1.17
2017-07-21T09:45:34.961Z,1.00
2017-07-21T09:48:03.665Z,1.00
2017-07-21T09:50:31.873Z,1.17
2017-07-21T09:52:59.257Z,1.13
2017-07-21T09:55:26.664Z,0.80
2017-07-21T09:57:54.072Z,1.00
2017-07-21T10:00:21.494Z,1.17
2017-07-21T10:02:48.892Z,0.80
2017-07-21T10:05:17.075Z,0.90
2017-07-21T10:07:45.249Z,1.00
2017-07-21T10:10:13.458Z,1.00
2017-07-21T10:12:40.862Z,0.90
2017-07-21T10:15:08.277Z,0.80
2017-07-21T10:17:35.695Z,1.20
2017-07-21T10:20:03.871Z,1.10
2017-07-21T10:22:32.881Z,1.33
2017-07-21T10:25:00.298Z,1.20
2017-07-21T10:27:28.291Z,1.33
2017-07-21T10:29:56.473Z,1.00
2017-07-21T10:32:23.880Z,1.30
2017-07-21T10:34:51.298Z,1.10
2017-07-21T10:37:18.713Z,1.00
2017-07-21T10:39:46.126Z,1.00
2017-07-21T10:42:14.465Z,1.07
2017-07-21T10:44:42.633Z,1.50
2017-07-21T10:47:10.825Z,1.33
2017-07-21T10:49:38.237Z,4.77
2017-07-21T10:52:05.663Z,2.33
2017-07-21T10:54:33.082Z,2.20
2017-07-21T10:57:01.271Z,0.90
2017-07-21T10:59:28.670Z,1.07
2017-07-21T11:01:56.085Z,1.20
2017-07-21T11:04:23.493Z,0.90
2017-07-21T11:06:50.925Z,1.20
2017-07-21T11:09:18.337Z,0.90
2017-07-21T11:11:46.524Z,1.00
2017-07-21T11:14:13.937Z,1.17
2017-07-21T11:16:41.568Z,1.00
2017-07-21T11:19:08.978Z,1.23
2017-07-21T11:21:36.401Z,1.00
2017-07-21T11:24:03.813Z,1.00
2017-07-21T11:26:31.233Z,1.50
2017-07-21T11:28:59.428Z,1.10
2017-07-21T11:31:27.610Z,1.10
2017-07-21T11:33:55.028Z,1.53
2017-07-21T11:36:23.227Z,2.03
2017-07-21T11:38:51.400Z,1.07
2017-07-21T11:41:19.581Z,1.10
2017-07-21T11:43:47.006Z,1.10
2017-07-21T11:46:14.421Z,1.20
2017-07-21T11:48:41.839Z,0.90
2017-07-21T11:51:10.014Z,0.80
2017-07-21T11:53:38.206Z,1.10
2017-07-21T11:56:05.621Z,1.40
2017-07-21T11:58:33.064Z,1.10
2017-07-21T12:01:00.460Z,1.00
2017-07-21T12:03:28.648Z,1.30
2017-07-21T12:05:56.053Z,1.10
2017-07-21T12:08:23.481Z,1.20
2017-07-21T12:10:51.817Z,1.00
2017-07-21T12:13:19.995Z,1.10
2017-07-21T12:15:48.183Z,1.23
2017-07-21T12:18:15.585Z,1.07
2017-07-21T12:20:43.006Z,1.00
2017-07-21T12:23:10.414Z,1.10
2017-07-21T12:25:38.350Z,1.27
2017-07-21T12:28:05.762Z,1.27
2017-07-21T12:30:33.949Z,0.97
2017-07-21T12:33:01.777Z,0.90
2017-07-21T12:35:30.071Z,1.80
2017-07-21T12:37:58.240Z,1.10
2017-07-21T12:40:26.438Z,1.50
2017-07-21T12:42:53.845Z,1.13
2017-07-21T12:45:21.253Z,1.30
2017-07-21T12:47:48.674Z,1.13
2017-07-21T12:50:16.987Z,1.17
2017-07-21T12:52:44.405Z,1.70
2017-07-21T12:55:11.827Z,1.07
2017-07-21T12:57:39.942Z,1.40
2017-07-21T13:00:07.355Z,1.17
2017-07-21T13:02:35.137Z,1.40
2017-07-21T13:05:02.550Z,1.30
2017-07-21T13:07:29.965Z,0.90
2017-07-21T13:09:57.383Z,1.60
2017-07-21T13:12:24.789Z,1.40
2017-07-21T13:14:53.327Z,1.40
2017-07-21T13:17:20.737Z,1.40
2017-07-21T13:19:48.913Z,1.30
2017-07-21T13:22:17.100Z,1.10
2017-07-21T13:24:44.508Z,1.40
2017-07-21T13:27:11.925Z,1.40
2017-07-21T13:29:39.325Z,1.43
2017-07-21T13:32:06.766Z,1.57
2017-07-21T13:34:34.174Z,1.47
2017-07-21T13:37:01.581Z,1.37
2017-07-21T13:39:29.001Z,1.17
2017-07-21T13:41:56.414Z,1.30
2017-07-21T13:44:23.836Z,1.43
2017-07-21T13:46:51.244Z,1.37
2017-07-21T13:49:18.673Z,1.30
2017-07-21T13:51:46.085Z,1.07
2017-07-21T13:54:13.489Z,1.50
2017-07-21T13:56:41.805Z,1.20
2017-07-21T13:59:09.221Z,1.43
2017-07-21T14:01:36.637Z,1.30
2017-07-21T14:04:04.065Z,1.60
2017-07-21T14:06:31.470Z,1.53
2017-07-21T14:08:59.692Z,9.93
2017-07-21T14:11:27.856Z,1.40
2017-07-21T14:13:55.277Z,1.27
2017-07-21T14:16:22.694Z,1.87
2017-07-21T14:18:50.901Z,1.60
2017-07-21T14:21:18.309Z,1.80
2017-07-21T14:23:46.489Z,1.97
2017-07-21T14:26:13.905Z,1.27
2017-07-21T14:28:41.309Z,1.60
2017-07-21T14:31:08.734Z,1.30
2017-07-21T14:33:36.145Z,1.50
2017-07-21T14:36:03.556Z,1.80
2017-07-21T14:38:31.721Z,1.40
2017-07-21T14:41:00.581Z,1.97
2017-07-21T14:43:28.000Z,1.30
2017-07-21T14:45:55.410Z,1.43
2017-07-21T14:48:22.830Z,1.47
2017-07-21T14:50:50.245Z,1.47
2017-07-21T14:53:18.424Z,1.40
2017-07-21T14:55:46.605Z,1.60
2017-07-21T14:58:15.227Z,1.43
2017-07-21T15:00:42.621Z,1.30
2017-07-21T15:03:10.032Z,1.77
2017-07-21T15:05:37.437Z,1.43
2017-07-21T15:08:06.425Z,1.40
2017-07-21T15:10:33.831Z,1.60
2017-07-21T15:13:01.241Z,1.70
2017-07-21T15:15:29.423Z,1.40
2017-07-21T15:17:57.604Z,1.40
2017-07-21T15:20:25.769Z,1.53
2017-07-21T15:22:53.951Z,2.77
2017-07-21T15:25:22.317Z,1.53
2017-07-21T15:27:50.369Z,1.70
2017-07-21T15:30:17.770Z,1.30
2017-07-21T15:32:45.181Z,1.60
2017-07-21T15:35:12.600Z,1.60
2017-07-21T15:37:40.013Z,1.63
2017-07-21T15:40:08.193Z,1.50
2017-07-21T15:42:36.376Z,1.30
2017-07-21T15:45:04.573Z,1.80
2017-07-21T15:47:31.993Z,1.33
2017-07-21T15:49:59.401Z,1.87
2017-07-21T15:52:26.820Z,1.30
2017-07-21T15:54:54.230Z,1.50
2017-07-21T15:57:21.655Z,1.57
2017-07-21T15:59:49.065Z,1.97
2017-07-21T16:02:17.489Z,1.50
2017-07-21T16:04:46.065Z,1.53
2017-07-21T16:07:13.468Z,1.53
2017-07-21T16:09:41.426Z,1.83
2017-07-21T16:12:09.169Z,1.57
2017-07-21T16:14:36.584Z,1.90
2017-07-21T16:17:04.766Z,1.80
2017-07-21T16:19:32.188Z,1.67
2017-07-21T16:22:00.128Z,1.47
2017-07-21T16:24:27.546Z,1.80
2017-07-21T16:26:55.708Z,1.63
2017-07-21T16:29:24.713Z,2.10
2017-07-21T16:31:52.117Z,1.63
2017-07-21T16:34:19.538Z,1.90
2017-07-21T16:36:46.945Z,1.40
2017-07-21T16:39:14.637Z,1.53
2017-07-21T16:41:42.044Z,1.70
2017-07-21T16:44:09.464Z,1.60
2017-07-21T16:46:36.869Z,2.10
2017-07-21T16:49:04.305Z,1.80
2017-07-21T16:51:31.705Z,1.80
2017-07-21T16:53:59.113Z,1.80
2017-07-21T16:56:26.533Z,2.20
2017-07-21T16:58:54.717Z,1.67
2017-07-21T17:01:22.122Z,1.90
2017-07-21T17:03:49.533Z,1.80
2017-07-21T17:06:17.732Z,2.00
2017-07-21T17:08:45.144Z,2.00
2017-07-21T17:11:13.333Z,2.07
2017-07-21T17:13:40.729Z,2.13
2017-07-21T17:16:08.145Z,1.50
2017-07-21T17:18:36.713Z,1.90
2017-07-21T17:21:04.898Z,1.80
2017-07-21T17:23:32.309Z,2.20
2017-07-21T17:25:59.725Z,1.90
2017-07-21T17:28:27.125Z,1.97
2017-07-21T17:30:54.542Z,2.23
2017-07-21T17:33:21.949Z,1.97
2017-07-21T17:35:50.136Z,2.00
2017-07-21T17:38:18.661Z,2.40
2017-07-21T17:40:46.057Z,1.83
2017-07-21T17:43:14.290Z,2.13
2017-07-21T17:45:41.705Z,1.97
2017-07-21T17:48:09.978Z,1.80
2017-07-21T17:50:38.162Z,2.07
2017-07-21T17:53:05.577Z,1.90
2017-07-21T17:55:32.988Z,2.27
2017-07-21T17:58:00.412Z,2.17
2017-07-21T18:00:27.814Z,2.50
2017-07-21T18:02:56.137Z,2.00
2017-07-21T18:05:24.367Z,2.10
2017-07-21T18:07:51.774Z,2.20
2017-07-21T18:10:19.959Z,1.90
2017-07-21T18:12:48.779Z,2.57
2017-07-21T18:15:16.181Z,1.90
2017-07-21T18:17:44.777Z,2.40
2017-07-21T18:20:12.944Z,2.57
2017-07-21T18:22:41.128Z,1.87
2017-07-21T18:25:09.300Z,4.80
2017-07-21T18:27:37.489Z,1.93
2017-07-21T18:30:04.902Z,2.27
2017-07-21T18:32:32.306Z,2.53
2017-07-21T18:35:00.850Z,2.40
2017-07-21T18:37:29.267Z,2.70
2017-07-21T18:39:56.682Z,2.80
2017-07-21T18:42:24.086Z,2.77
2017-07-21T18:44:51.504Z,3.53
2017-07-21T18:47:18.911Z,3.13
2017-07-21T18:49:46.321Z,2.80
2017-07-21T18:52:14.492Z,2.70
2017-07-21T18:54:42.686Z,3.03
2017-07-21T18:57:10.861Z,2.60
2017-07-21T18:59:38.280Z,2.93
2017-07-21T19:02:05.685Z,2.60
2017-07-21T19:04:34.705Z,2.23
2017-07-21T19:07:02.101Z,2.80
2017-07-21T19:09:29.517Z,3.87
2017-07-21T19:11:56.929Z,3.57
2017-07-21T19:14:25.956Z,5.10
2017-07-21T19:16:53.369Z,4.30
2017-07-21T19:19:21.544Z,3.03
2017-07-21T19:21:49.725Z,4.27
2017-07-21T19:24:17.899Z,3.60
2017-07-21T19:26:46.080Z,3.60
2017-07-21T19:29:13.494Z,3.87
2017-07-21T19:31:40.915Z,3.70
2017-07-21T19:34:08.309Z,4.30
2017-07-21T19:36:35.737Z,4.67
2017-07-21T19:39:03.133Z,5.43
2017-07-21T19:41:30.551Z,4.40
2017-07-21T19:43:57.963Z,4.50
2017-07-21T19:46:25.370Z,4.20
2017-07-21T19:48:52.799Z,4.30
2017-07-21T19:51:20.205Z,4.00
2017-07-21T19:53:47.613Z,3.43
2017-07-21T19:56:15.288Z,4.10
2017-07-21T19:58:42.695Z,3.83
2017-07-21T20:01:10.127Z,4.00
2017-07-21T20:03:37.537Z,4.60
2017-07-21T20:06:04.941Z,4.80
2017-07-21T20:08:32.357Z,4.90
2017-07-21T20:10:59.761Z,4.90
2017-07-21T20:13:27.186Z,3.93
2017-07-21T20:15:54.596Z,3.60
2017-07-21T20:18:22.780Z,3.30
2017-07-21T20:20:50.185Z,4.00
2017-07-21T20:23:17.910Z,3.70
2017-07-21T20:25:45.313Z,3.77
2017-07-21T20:28:13.544Z,3.70
2017-07-21T20:30:40.957Z,4.33
2017-07-21T20:33:08.372Z,3.40
2017-07-21T20:35:35.781Z,3.90
2017-07-21T20:38:03.958Z,4.57
2017-07-21T20:40:32.104Z,4.17
2017-07-21T20:42:59.518Z,3.80
2017-07-21T20:45:26.929Z,4.07
2017-07-21T20:47:54.353Z,4.97
2017-07-21T20:50:21.821Z,4.97
2017-07-21T20:52:49.256Z,4.17
2017-07-21T20:55:16.669Z,4.83
2017-07-21T20:57:44.977Z,4.70
2017-07-21T21:00:13.134Z,4.50
2017-07-21T21:02:40.541Z,5.07
2017-07-21T21:05:07.958Z,5.87
2017-07-21T21:07:35.368Z,5.00
2017-07-21T21:10:02.773Z,6.00
2017-07-21T21:12:30.193Z,7.00
2017-07-21T21:14:58.007Z,6.70
2017-07-21T21:17:25.409Z,7.73
2017-07-21T21:19:52.825Z,7.00
2017-07-21T21:22:20.233Z,6.40
2017-07-21T21:24:48.413Z,6.87
2017-07-21T21:27:16.589Z,6.40
2017-07-21T21:29:44.006Z,4.90
2017-07-21T21:32:11.413Z,5.10
2017-07-21T21:34:38.830Z,4.87
2017-07-21T21:37:06.234Z,5.20
2017-07-21T21:39:33.650Z,5.00
2017-07-21T21:42:01.066Z,4.77
2017-07-21T21:44:28.489Z,4.30
2017-07-21T21:46:55.888Z,4.83
2017-07-21T21:49:24.152Z,4.57
2017-07-21T21:51:51.562Z,4.50
2017-07-21T21:54:19.744Z,3.90
2017-07-21T21:56:48.684Z,4.53
2017-07-21T21:59:16.097Z,3.67
2017-07-21T22:01:43.515Z,4.20
2017-07-21T22:04:10.913Z,3.90
2017-07-21T22:06:38.326Z,3.93
2017-07-21T22:09:05.748Z,4.10
2017-07-21T22:11:33.161Z,4.30
2017-07-21T22:14:01.332Z,3.63
2017-07-21T22:16:29.509Z,4.10
2017-07-21T22:18:57.677Z,3.90
2017-07-21T22:21:25.858Z,4.00
2017-07-21T22:23:54.026Z,4.37
2017-07-21T22:26:22.209Z,3.50
2017-07-21T22:28:50.384Z,3.90
2017-07-21T22:31:17.797Z,3.40
2017-07-21T22:33:45.212Z,3.50
2017-07-21T22:36:12.846Z,3.60
2017-07-21T22:38:41.925Z,3.67
2017-07-21T22:41:09.333Z,3.50
2017-07-21T22:43:36.805Z,3.43
2017-07-21T22:46:04.197Z,3.57
2017-07-21T22:48:31.610Z,3.43
2017-07-21T22:50:59.017Z,3.33
2017-07-21T22:53:27.193Z,3.23
2017-07-21T22:55:55.369Z,3.50
2017-07-21T22:58:23.550Z,2.87
2017-07-21T23:00:51.719Z,4.00
2017-07-21T23:03:19.904Z,8.57
2017-07-21T23:05:48.077Z,8.50
2017-07-21T23:08:16.261Z,8.13
2017-07-21T23:10:44.345Z,8.47
2017-07-21T23:13:11.761Z,7.17
2017-07-21T23:15:39.170Z,5.80
2017-07-21T23:18:06.578Z,6.00
2017-07-21T23:20:35.562Z,7.10
2017-07-21T23:23:02.978Z,7.80
2017-07-21T23:25:30.387Z,7.77
2017-07-21T23:27:58.606Z,8.53
2017-07-21T23:30:33.565Z,8.27
2017-07-21T23:33:00.990Z,7.60
2017-07-21T23:35:28.403Z,7.83
2017-07-21T23:37:56.591Z,7.60
2017-07-21T23:40:24.816Z,7.33
2017-07-21T23:42:52.227Z,5.10
2017-07-21T23:45:19.637Z,4.60
2017-07-21T23:47:47.045Z,5.20
2017-07-21T23:50:14.460Z,3.90
2017-07-21T23:52:41.860Z,3.77
2017-07-21T23:55:09.270Z,3.63
2017-07-21T23:57:36.682Z,2.50
